KAMW/AMW METAR and TAF weather

Enter ICAO airport designator
Station Type Date Time Source
KAMW METAR 2020/04/04 04:53 UTC NOAA

KAMW 040453Z AUTO 35012KT 10SM OVC014 M02/M04 A3024 RMK AO2 SLP248 T10221044


Station Type Date Time Source
KAMW Decoded METAR 2020/04/04 04:53 UTC NOAA

AMES MUNICIPAL AIRPORT, IA, United States (KAMW) 41-59N 93-37W 279M
Apr 04, 2020 - 12:53 AM EDT / 2020.04.04 0453 UTC
Wind: from the N (350 degrees) at 14 MPH (12 KT):0
Visibility: 10 mile(s):0
Sky conditions: overcast
Temperature: 28.0 F (-2.2 C)
Windchill: 17 F (-8 C):1
Dew Point: 24.1 F (-4.4 C)
Relative Humidity: 84%
Pressure (altimeter): 30.24 in. Hg (1024 hPa)
ob: KAMW 040453Z AUTO 35012KT 10SM OVC014 M02/M04 A3024 RMK AO2 SLP248 T10221044
cycle: 5

Station Type Date Time Source
KAMW TAF UTC NOAA

Error!

Example: see airport list